createdAt,value
2023-01-10T00:00:10.579Z,962.08
2023-01-10T00:01:00.530Z,962.08
2023-01-10T00:01:50.498Z,962.12
2023-01-10T00:02:40.589Z,962.17
2023-01-10T00:03:30.481Z,962.27
2023-01-10T00:04:20.550Z,962.30
2023-01-10T00:05:10.465Z,962.35
2023-01-10T00:06:00.458Z,962.35
2023-01-10T00:06:50.450Z,962.38
2023-01-10T00:07:40.436Z,962.39
2023-01-10T00:08:30.438Z,962.37
2023-01-10T00:09:20.438Z,962.42
2023-01-10T00:10:10.415Z,962.44
2023-01-10T00:11:00.407Z,962.47
2023-01-10T00:11:50.399Z,962.55
2023-01-10T00:12:40.388Z,962.53
2023-01-10T00:13:30.388Z,962.53
2023-01-10T00:14:20.376Z,962.55
2023-01-10T00:15:10.354Z,962.56
2023-01-10T00:16:00.383Z,962.57
2023-01-10T00:16:50.345Z,962.55
2023-01-10T00:17:40.371Z,962.56
2023-01-10T00:18:30.316Z,962.60
2023-01-10T00:19:20.308Z,962.66
2023-01-10T00:20:10.295Z,962.65
2023-01-10T00:21:00.295Z,962.64
2023-01-10T00:21:50.301Z,962.63
2023-01-10T00:22:40.294Z,962.68
2023-01-10T00:23:30.258Z,962.69
2023-01-10T00:24:20.255Z,962.73
2023-01-10T00:25:10.254Z,962.75
2023-01-10T00:26:00.254Z,962.71
2023-01-10T00:26:50.243Z,962.74
2023-01-10T00:27:40.218Z,962.74
2023-01-10T00:28:30.207Z,962.77
2023-01-10T00:29:20.195Z,962.77
2023-01-10T00:30:10.192Z,962.80
2023-01-10T00:31:00.326Z,962.90
2023-01-10T00:31:50.179Z,962.92
2023-01-10T00:32:40.170Z,962.93
2023-01-10T00:33:30.171Z,962.94
2023-01-10T00:34:20.145Z,963.01
2023-01-10T00:35:10.131Z,963.04
2023-01-10T00:36:00.127Z,963.06
2023-01-10T00:36:50.143Z,963.06
2023-01-10T00:37:40.121Z,963.02
2023-01-10T00:38:30.094Z,963.07
2023-01-10T00:39:20.115Z,963.13
2023-01-10T00:40:10.110Z,963.15
2023-01-10T00:41:00.117Z,963.12
2023-01-10T00:41:50.061Z,963.16
2023-01-10T00:42:40.053Z,963.20
2023-01-10T00:43:30.040Z,963.38
2023-01-10T00:44:20.049Z,963.30
2023-01-10T00:45:10.030Z,963.17
2023-01-10T00:46:00.076Z,963.15
2023-01-10T00:46:50.013Z,963.14
2023-01-10T00:47:40.004Z,963.25
2023-01-10T00:48:30.029Z,963.27
2023-01-10T00:49:19.992Z,963.33
2023-01-10T00:50:09.977Z,963.41
2023-01-10T00:50:59.962Z,963.39
2023-01-10T00:51:49.964Z,963.44
2023-01-10T00:52:39.952Z,963.42
2023-01-10T00:53:29.939Z,963.34
2023-01-10T00:54:19.947Z,963.45
2023-01-10T00:55:09.931Z,963.44
2023-01-10T00:55:59.901Z,963.42
2023-01-10T00:56:49.900Z,963.44
2023-01-10T00:57:39.909Z,963.38
2023-01-10T00:58:29.888Z,963.40
2023-01-10T00:59:19.874Z,963.47
2023-01-10T01:00:09.876Z,963.50
2023-01-10T01:00:59.914Z,963.50
2023-01-10T01:01:49.973Z,963.48
2023-01-10T01:02:39.854Z,963.42
2023-01-10T01:03:29.851Z,963.45
2023-01-10T01:04:19.816Z,963.49
2023-01-10T01:05:09.824Z,963.54
2023-01-10T01:05:59.798Z,963.55
2023-01-10T01:06:49.814Z,963.60
2023-01-10T01:07:39.790Z,963.56
2023-01-10T01:08:29.794Z,963.53
2023-01-10T01:09:19.761Z,963.58
2023-01-10T01:10:09.746Z,963.62
2023-01-10T01:10:59.747Z,963.64
2023-01-10T01:11:49.753Z,963.68
2023-01-10T01:12:39.732Z,963.67
2023-01-10T01:13:29.720Z,963.67
2023-01-10T01:14:19.720Z,963.65
2023-01-10T01:15:09.696Z,963.74
2023-01-10T01:15:59.769Z,963.73
2023-01-10T01:16:49.757Z,963.74
2023-01-10T01:17:39.677Z,963.78
2023-01-10T01:18:29.674Z,963.76
2023-01-10T01:19:19.651Z,963.83
2023-01-10T01:20:09.636Z,963.87
2023-01-10T01:20:59.637Z,963.89
2023-01-10T01:21:49.645Z,963.91
2023-01-10T01:22:39.644Z,963.88
2023-01-10T01:23:29.610Z,963.95
2023-01-10T01:24:19.591Z,963.93
2023-01-10T01:25:09.610Z,964.01
2023-01-10T01:25:59.580Z,964.06
2023-01-10T01:26:49.571Z,964.05
2023-01-10T01:27:39.595Z,964.03
2023-01-10T01:28:29.573Z,964.07
2023-01-10T01:29:19.533Z,964.10
2023-01-10T01:30:09.544Z,964.14
2023-01-10T01:30:59.585Z,964.11
2023-01-10T01:31:49.518Z,964.19
2023-01-10T01:32:39.514Z,964.18
2023-01-10T01:33:29.505Z,964.15
2023-01-10T01:34:19.533Z,964.18
2023-01-10T01:35:09.483Z,964.22
2023-01-10T01:35:59.462Z,964.22
2023-01-10T01:36:49.460Z,964.19
2023-01-10T01:37:39.452Z,964.27
2023-01-10T01:38:29.448Z,964.30
2023-01-10T01:39:19.448Z,964.39
2023-01-10T01:40:09.419Z,964.31
2023-01-10T01:40:59.409Z,964.29
2023-01-10T01:41:49.404Z,964.35
2023-01-10T01:42:39.394Z,964.43
2023-01-10T01:43:29.397Z,964.46
2023-01-10T01:44:19.391Z,964.46
2023-01-10T01:45:09.417Z,964.48
2023-01-10T01:45:59.361Z,964.48
2023-01-10T01:46:49.357Z,964.52
2023-01-10T01:47:39.349Z,964.53
2023-01-10T01:48:29.328Z,964.59
2023-01-10T01:49:19.318Z,964.56
2023-01-10T01:50:09.314Z,964.59
2023-01-10T01:50:59.297Z,964.63
2023-01-10T01:51:49.286Z,964.74
2023-01-10T01:52:39.304Z,964.73
2023-01-10T01:53:29.298Z,964.74
2023-01-10T01:54:19.270Z,964.80
2023-01-10T01:55:09.258Z,964.79
2023-01-10T01:55:59.247Z,964.79
2023-01-10T01:56:49.278Z,964.82
2023-01-10T01:57:39.229Z,964.86
2023-01-10T01:58:29.216Z,964.88
2023-01-10T01:59:19.227Z,964.92
2023-01-10T02:00:09.205Z,964.96
2023-01-10T02:00:59.258Z,964.93
2023-01-10T02:01:49.258Z,964.99
2023-01-10T02:02:39.237Z,964.97
2023-01-10T02:03:29.276Z,964.98
2023-01-10T02:04:19.196Z,964.99
2023-01-10T02:05:09.179Z,964.99
2023-01-10T02:05:59.142Z,965.02
2023-01-10T02:06:49.155Z,965.11
2023-01-10T02:07:39.155Z,965.09
2023-01-10T02:08:29.104Z,965.07
2023-01-10T02:09:19.094Z,965.15
2023-01-10T02:10:09.086Z,965.13
2023-01-10T02:10:59.080Z,965.16
2023-01-10T02:11:49.109Z,965.16
2023-01-10T02:12:39.053Z,965.20
2023-01-10T02:13:29.043Z,965.17
2023-01-10T02:14:19.033Z,965.18
2023-01-10T02:15:09.033Z,965.22
2023-01-10T02:15:59.103Z,965.27
2023-01-10T02:16:49.032Z,965.25
2023-01-10T02:17:39.038Z,965.30
2023-01-10T02:18:28.996Z,965.33
2023-01-10T02:19:18.991Z,965.36
2023-01-10T02:20:08.983Z,965.33
2023-01-10T02:20:58.963Z,965.40
2023-01-10T02:21:48.960Z,965.39
2023-01-10T02:22:38.964Z,965.38
2023-01-10T02:23:28.963Z,965.36
2023-01-10T02:24:18.934Z,965.40
2023-01-10T02:25:08.926Z,965.44
2023-01-10T02:25:58.912Z,965.32
2023-01-10T02:26:48.909Z,965.35
2023-01-10T02:27:38.913Z,965.35
2023-01-10T02:28:28.900Z,965.33
2023-01-10T02:29:18.871Z,965.35
2023-01-10T02:30:08.879Z,965.39
2023-01-10T02:30:58.900Z,965.34
2023-01-10T02:31:48.852Z,965.35
2023-01-10T02:32:50.384Z,965.35
2023-01-10T02:33:29.831Z,965.39
2023-01-10T02:34:18.839Z,965.39
2023-01-10T02:35:08.814Z,965.39
2023-01-10T02:35:58.810Z,965.41
2023-01-10T02:36:48.820Z,965.38
2023-01-10T02:37:38.780Z,965.39
2023-01-10T02:38:28.783Z,965.43
2023-01-10T02:39:18.789Z,965.45
2023-01-10T02:40:08.769Z,965.49
2023-01-10T02:40:58.762Z,965.49
2023-01-10T02:41:48.773Z,965.48
2023-01-10T02:42:38.733Z,965.52
2023-01-10T02:43:28.721Z,965.50
2023-01-10T02:44:18.743Z,965.45
2023-01-10T02:45:08.707Z,965.48
2023-01-10T02:45:58.697Z,965.51
2023-01-10T02:46:48.783Z,965.45
2023-01-10T02:47:38.684Z,965.49
2023-01-10T02:48:28.695Z,965.52
2023-01-10T02:49:18.664Z,965.61
2023-01-10T02:50:08.649Z,965.58
2023-01-10T02:50:58.670Z,965.62
2023-01-10T02:51:48.655Z,965.65
2023-01-10T02:52:38.617Z,965.68
2023-01-10T02:53:28.620Z,965.67
2023-01-10T02:54:18.637Z,965.68
2023-01-10T02:55:08.597Z,965.63
2023-01-10T02:55:58.585Z,965.64
2023-01-10T02:56:48.591Z,965.65
2023-01-10T02:57:38.574Z,965.80
2023-01-10T02:58:28.571Z,965.81
2023-01-10T02:59:18.587Z,965.75
2023-01-10T03:00:08.537Z,965.81
2023-01-10T03:00:58.559Z,965.88
2023-01-10T03:01:48.563Z,965.84
2023-01-10T03:02:38.519Z,965.86
2023-01-10T03:03:28.506Z,965.87
2023-01-10T03:04:18.515Z,965.74
2023-01-10T03:05:08.556Z,965.81
2023-01-10T03:05:58.481Z,965.78
2023-01-10T03:06:48.474Z,965.85
2023-01-10T03:07:38.486Z,965.88
2023-01-10T03:08:28.452Z,965.88
2023-01-10T03:09:18.453Z,965.80
2023-01-10T03:10:08.443Z,965.78
2023-01-10T03:10:58.423Z,965.74
2023-01-10T03:11:48.413Z,965.89
2023-01-10T03:12:38.407Z,965.93
2023-01-10T03:13:28.411Z,965.97
2023-01-10T03:14:18.385Z,965.95
2023-01-10T03:15:08.381Z,966.00
2023-01-10T03:15:58.420Z,966.01
2023-01-10T03:16:48.359Z,966.04
2023-01-10T03:17:38.369Z,965.98
2023-01-10T03:18:28.369Z,965.99
2023-01-10T03:19:18.323Z,966.00
2023-01-10T03:20:08.332Z,966.03
2023-01-10T03:20:58.312Z,966.02
2023-01-10T03:21:48.302Z,966.09
2023-01-10T03:22:38.309Z,966.10
2023-01-10T03:23:28.310Z,966.06
2023-01-10T03:24:18.272Z,966.10
2023-01-10T03:25:08.288Z,966.15
2023-01-10T03:25:58.266Z,966.21
2023-01-10T03:26:48.243Z,966.25
2023-01-10T03:27:38.241Z,966.24
2023-01-10T03:28:28.268Z,966.24
2023-01-10T03:29:18.250Z,966.26
2023-01-10T03:30:08.226Z,966.30
2023-01-10T03:30:58.244Z,966.35
2023-01-10T03:31:48.187Z,966.35
2023-01-10T03:32:38.201Z,966.35
2023-01-10T03:33:28.169Z,966.40
2023-01-10T03:34:18.159Z,966.32
2023-01-10T03:35:08.189Z,966.35
2023-01-10T03:35:58.165Z,966.39
2023-01-10T03:36:48.139Z,966.37
2023-01-10T03:37:38.156Z,966.39
2023-01-10T03:38:28.130Z,966.36
2023-01-10T03:39:18.103Z,966.45
2023-01-10T03:40:08.099Z,966.47
2023-01-10T03:40:58.108Z,966.49
2023-01-10T03:41:48.100Z,966.39
2023-01-10T03:42:38.068Z,966.37
2023-01-10T03:43:28.070Z,966.43
2023-01-10T03:44:18.069Z,966.42
2023-01-10T03:45:08.058Z,966.40
2023-01-10T03:45:58.037Z,966.39
2023-01-10T03:46:48.062Z,966.43
2023-01-10T03:47:38.019Z,966.48
2023-01-10T03:48:28.050Z,966.40
2023-01-10T03:49:18.022Z,966.41
2023-01-10T03:50:08.003Z,966.52
2023-01-10T03:50:57.995Z,966.56
2023-01-10T03:51:47.987Z,966.54
2023-01-10T03:52:37.968Z,966.54
2023-01-10T03:53:27.960Z,966.56
2023-01-10T03:54:17.958Z,966.56
2023-01-10T03:55:07.950Z,966.61
2023-01-10T03:55:57.926Z,966.53
2023-01-10T03:56:47.921Z,966.55
2023-01-10T03:57:37.913Z,966.63
2023-01-10T03:58:27.903Z,966.69
2023-01-10T03:59:17.904Z,966.69
2023-01-10T04:00:07.904Z,966.67
2023-01-10T04:00:58.005Z,966.72
2023-01-10T04:01:47.993Z,966.72
2023-01-10T04:02:37.853Z,966.71
2023-01-10T04:03:27.865Z,966.75
2023-01-10T04:04:17.890Z,966.76
2023-01-10T04:05:07.860Z,966.76
2023-01-10T04:05:57.817Z,966.80
2023-01-10T04:06:47.825Z,966.83
2023-01-10T04:07:37.801Z,966.92
2023-01-10T04:08:27.795Z,966.96
2023-01-10T04:09:17.785Z,966.97
2023-01-10T04:10:07.787Z,966.99
2023-01-10T04:10:57.783Z,966.94
2023-01-10T04:11:47.757Z,966.93
2023-01-10T04:12:37.740Z,967.05
2023-01-10T04:13:27.846Z,967.07
2023-01-10T04:14:17.759Z,967.09
2023-01-10T04:15:07.723Z,967.06
2023-01-10T04:15:57.713Z,967.02
2023-01-10T04:16:47.704Z,967.09
2023-01-10T04:17:37.692Z,967.16
2023-01-10T04:18:27.691Z,967.24
2023-01-10T04:19:17.688Z,967.22
2023-01-10T04:20:07.662Z,967.23
2023-01-10T04:20:57.670Z,967.24
2023-01-10T04:21:47.659Z,967.22
2023-01-10T04:22:37.646Z,967.18
2023-01-10T04:23:27.623Z,967.25
2023-01-10T04:24:17.621Z,967.31
2023-01-10T04:25:07.652Z,967.36
2023-01-10T04:25:57.603Z,967.29
2023-01-10T04:26:47.604Z,967.33
2023-01-10T04:27:37.579Z,967.37
2023-01-10T04:28:27.581Z,967.35
2023-01-10T04:29:17.573Z,967.35
2023-01-10T04:30:07.551Z,967.39
2023-01-10T04:30:57.557Z,967.45
2023-01-10T04:31:47.604Z,967.39
2023-01-10T04:32:37.535Z,967.46
2023-01-10T04:33:27.497Z,967.52
2023-01-10T04:34:17.497Z,967.50
2023-01-10T04:35:07.501Z,967.46
2023-01-10T04:35:57.506Z,967.44
2023-01-10T04:36:49.376Z,967.47
2023-01-10T04:37:37.487Z,967.42
2023-01-10T04:38:27.493Z,967.51
2023-01-10T04:39:17.467Z,967.53
2023-01-10T04:40:07.445Z,967.56
2023-01-10T04:40:57.444Z,967.54
2023-01-10T04:41:47.413Z,967.57
2023-01-10T04:42:37.426Z,967.59
2023-01-10T04:43:27.396Z,967.61
2023-01-10T04:44:17.404Z,967.59
2023-01-10T04:45:07.402Z,967.57
2023-01-10T04:45:57.457Z,967.65
2023-01-10T04:46:47.399Z,967.70
2023-01-10T04:47:37.384Z,967.61
2023-01-10T04:48:27.366Z,967.65
2023-01-10T04:49:17.419Z,967.67
2023-01-10T04:50:07.336Z,967.69
2023-01-10T04:50:57.324Z,967.70
2023-01-10T04:51:47.331Z,967.74
2023-01-10T04:52:37.334Z,967.77
2023-01-10T04:53:27.315Z,967.78
2023-01-10T04:54:17.283Z,967.78
2023-01-10T04:55:07.284Z,967.78
2023-01-10T04:55:57.264Z,967.83
2023-01-10T04:56:47.253Z,967.87
2023-01-10T04:57:37.244Z,967.98
2023-01-10T04:58:27.238Z,967.97
2023-01-10T04:59:17.273Z,967.98
2023-01-10T05:00:07.215Z,967.99
2023-01-10T05:00:57.252Z,967.98
2023-01-10T05:01:47.368Z,967.99
2023-01-10T05:02:37.238Z,968.07
2023-01-10T05:03:27.191Z,968.00
2023-01-10T05:04:18.090Z,968.05
2023-01-10T05:05:07.203Z,968.06
2023-01-10T05:05:57.150Z,968.08
2023-01-10T05:06:47.141Z,968.09
2023-01-10T05:07:37.159Z,968.09
2023-01-10T05:08:27.127Z,968.07
2023-01-10T05:09:17.121Z,968.05
2023-01-10T05:10:07.141Z,968.09
2023-01-10T05:10:57.141Z,968.10
2023-01-10T05:11:47.094Z,968.15
2023-01-10T05:12:37.083Z,968.16
2023-01-10T05:13:27.110Z,968.14
2023-01-10T05:14:17.073Z,968.18
2023-01-10T05:15:07.068Z,968.21
2023-01-10T05:15:57.053Z,968.23
2023-01-10T05:16:47.072Z,968.26
2023-01-10T05:17:37.049Z,968.25
2023-01-10T05:18:27.017Z,968.23
2023-01-10T05:19:17.116Z,968.30
2023-01-10T05:20:06.998Z,968.31
2023-01-10T05:20:57.114Z,968.38
2023-01-10T05:21:46.987Z,968.37
2023-01-10T05:22:36.988Z,968.37
2023-01-10T05:23:26.970Z,968.42
2023-01-10T05:24:16.997Z,968.46
2023-01-10T05:25:06.947Z,968.47
2023-01-10T05:25:56.968Z,968.46
2023-01-10T05:26:46.938Z,968.47
2023-01-10T05:27:36.950Z,968.49
2023-01-10T05:28:26.906Z,968.50
2023-01-10T05:29:16.942Z,968.52
2023-01-10T05:30:06.888Z,968.59
2023-01-10T05:30:56.884Z,968.59
2023-01-10T05:31:46.927Z,968.56
2023-01-10T05:32:36.874Z,968.52
2023-01-10T05:33:26.880Z,968.49
2023-01-10T05:34:16.855Z,968.46
2023-01-10T05:35:06.843Z,968.45
2023-01-10T05:35:56.845Z,968.42
2023-01-10T05:36:46.822Z,968.40
2023-01-10T05:37:38.077Z,968.43
2023-01-10T05:38:26.814Z,968.41
2023-01-10T05:39:16.802Z,968.42
2023-01-10T05:40:06.869Z,968.43
2023-01-10T05:40:58.341Z,968.46
2023-01-10T05:41:46.775Z,968.45
2023-01-10T05:42:36.755Z,968.46
2023-01-10T05:43:26.741Z,968.49
2023-01-10T05:44:16.733Z,968.51
2023-01-10T05:45:06.724Z,968.59
2023-01-10T05:45:56.856Z,968.60
2023-01-10T05:46:46.704Z,968.59
2023-01-10T05:47:36.691Z,968.60
2023-01-10T05:48:26.729Z,968.59
2023-01-10T05:49:16.679Z,968.58
2023-01-10T05:50:06.659Z,968.58
2023-01-10T05:50:56.662Z,968.63
2023-01-10T05:51:46.674Z,968.62
2023-01-10T05:52:36.644Z,968.62
2023-01-10T05:53:26.650Z,968.55
2023-01-10T05:54:16.632Z,968.61
2023-01-10T05:55:06.640Z,968.54
2023-01-10T05:55:56.597Z,968.54
2023-01-10T05:56:46.654Z,968.60
2023-01-10T05:57:36.591Z,968.58
2023-01-10T05:58:26.581Z,968.58
2023-01-10T05:59:27.568Z,968.68
2023-01-10T06:00:07.571Z,968.71
2023-01-10T06:00:56.582Z,968.70
2023-01-10T06:01:46.672Z,968.74
2023-01-10T06:02:36.620Z,968.75
2023-01-10T06:03:26.647Z,968.76
2023-01-10T06:04:16.571Z,968.76
2023-01-10T06:05:06.546Z,968.80
2023-01-10T06:05:56.523Z,968.78
2023-01-10T06:06:46.493Z,968.78
2023-01-10T06:07:36.489Z,968.80
2023-01-10T06:08:26.469Z,968.78
2023-01-10T06:09:16.468Z,968.81
2023-01-10T06:10:06.470Z,968.80
2023-01-10T06:10:56.468Z,968.77
2023-01-10T06:11:46.435Z,968.76
2023-01-10T06:12:36.419Z,968.81
2023-01-10T06:13:26.407Z,968.76
2023-01-10T06:14:16.422Z,968.77
2023-01-10T06:15:06.426Z,968.75
2023-01-10T06:15:56.416Z,968.69
2023-01-10T06:16:46.377Z,968.69
2023-01-10T06:17:36.382Z,968.71
2023-01-10T06:18:26.364Z,968.72
2023-01-10T06:19:16.375Z,968.73
2023-01-10T06:20:06.338Z,968.76
2023-01-10T06:20:56.357Z,968.77
2023-01-10T06:21:46.344Z,968.77
2023-01-10T06:22:36.319Z,968.76
2023-01-10T06:23:26.317Z,968.73
2023-01-10T06:24:16.293Z,968.73
2023-01-10T06:25:06.294Z,968.69
2023-01-10T06:25:56.285Z,968.63
2023-01-10T06:26:46.298Z,968.69
2023-01-10T06:27:36.261Z,968.69
2023-01-10T06:28:26.251Z,968.71
2023-01-10T06:29:16.244Z,968.76
2023-01-10T06:30:06.263Z,968.77
2023-01-10T06:30:56.285Z,968.76
2023-01-10T06:31:46.225Z,968.81
2023-01-10T06:32:36.216Z,968.79
2023-01-10T06:33:26.212Z,968.77
2023-01-10T06:34:16.185Z,968.80
2023-01-10T06:35:06.240Z,968.79
2023-01-10T06:35:56.162Z,968.82
2023-01-10T06:36:46.168Z,968.82
2023-01-10T06:37:36.154Z,968.81
2023-01-10T06:38:26.142Z,968.82
2023-01-10T06:39:16.136Z,968.86
2023-01-10T06:40:06.144Z,968.88
2023-01-10T06:40:56.113Z,968.90
2023-01-10T06:41:46.145Z,968.91
2023-01-10T06:42:36.092Z,968.92
2023-01-10T06:43:26.125Z,968.92
2023-01-10T06:44:16.075Z,968.94
2023-01-10T06:45:06.061Z,968.99
2023-01-10T06:45:56.137Z,969.04
2023-01-10T06:46:46.040Z,969.08
2023-01-10T06:47:36.055Z,969.12
2023-01-10T06:48:26.031Z,969.10
2023-01-10T06:49:16.020Z,969.17
2023-01-10T06:50:06.014Z,969.22
2023-01-10T06:50:56.020Z,969.30
2023-01-10T06:51:45.987Z,969.37
2023-01-10T06:52:36.065Z,969.38
2023-01-10T06:53:25.959Z,969.39
2023-01-10T06:54:15.957Z,969.44
2023-01-10T06:55:05.964Z,969.51
2023-01-10T06:55:56.006Z,969.50
2023-01-10T06:56:45.940Z,969.51
2023-01-10T06:57:35.971Z,969.49
2023-01-10T06:58:25.920Z,969.54
2023-01-10T06:59:15.911Z,969.61
2023-01-10T07:00:05.926Z,969.67
2023-01-10T07:00:55.918Z,969.68
2023-01-10T07:01:46.026Z,969.77
2023-01-10T07:02:35.870Z,969.74
2023-01-10T07:03:25.920Z,969.70
2023-01-10T07:04:15.915Z,969.72
2023-01-10T07:05:05.860Z,969.65
2023-01-10T07:05:55.864Z,969.66
2023-01-10T07:06:45.840Z,969.63
2023-01-10T07:07:35.816Z,969.69
2023-01-10T07:08:25.827Z,969.68
2023-01-10T07:09:15.820Z,969.69
2023-01-10T07:10:05.788Z,969.73
2023-01-10T07:10:55.804Z,969.74
2023-01-10T07:11:45.776Z,969.77
2023-01-10T07:12:35.768Z,969.76
2023-01-10T07:13:25.756Z,969.82
2023-01-10T07:14:15.754Z,969.79
2023-01-10T07:15:05.724Z,969.77
2023-01-10T07:15:55.765Z,969.81
2023-01-10T07:16:45.736Z,969.85
2023-01-10T07:17:35.722Z,969.85
2023-01-10T07:18:25.706Z,969.91
2023-01-10T07:19:15.702Z,969.99
2023-01-10T07:20:05.683Z,970.05
2023-01-10T07:20:55.689Z,970.09
2023-01-10T07:21:45.655Z,970.11
2023-01-10T07:22:35.653Z,970.12
2023-01-10T07:23:25.655Z,970.12
2023-01-10T07:24:15.686Z,970.10
2023-01-10T07:25:05.630Z,970.13
2023-01-10T07:25:55.628Z,970.14
2023-01-10T07:26:45.614Z,970.12
2023-01-10T07:27:35.636Z,970.17
2023-01-10T07:28:25.604Z,970.11
2023-01-10T07:29:15.617Z,970.14
2023-01-10T07:30:05.593Z,970.13
2023-01-10T07:30:55.593Z,970.13
2023-01-10T07:31:45.573Z,970.23
2023-01-10T07:32:35.573Z,970.24
2023-01-10T07:33:25.522Z,970.30
2023-01-10T07:34:15.522Z,970.34
2023-01-10T07:35:05.565Z,970.33
2023-01-10T07:35:55.523Z,970.36
2023-01-10T07:36:45.492Z,970.35
2023-01-10T07:37:35.481Z,970.34
2023-01-10T07:38:25.469Z,970.35
2023-01-10T07:39:15.497Z,970.36
2023-01-10T07:40:05.461Z,970.41
2023-01-10T07:40:55.492Z,970.42
2023-01-10T07:41:45.479Z,970.42
2023-01-10T07:42:35.430Z,970.42
2023-01-10T07:43:25.463Z,970.41
2023-01-10T07:44:15.427Z,970.46
2023-01-10T07:45:05.406Z,970.47
2023-01-10T07:45:55.416Z,970.46
2023-01-10T07:46:45.409Z,970.45
2023-01-10T07:47:35.392Z,970.49
2023-01-10T07:48:25.371Z,970.48
2023-01-10T07:49:15.364Z,970.45
2023-01-10T07:50:05.354Z,970.44
2023-01-10T07:50:55.373Z,970.40
2023-01-10T07:51:45.319Z,970.45
2023-01-10T07:52:35.349Z,970.46
2023-01-10T07:53:25.309Z,970.44
2023-01-10T07:54:15.305Z,970.47
2023-01-10T07:55:05.291Z,970.42
2023-01-10T07:55:55.324Z,970.46
2023-01-10T07:56:45.282Z,970.49
2023-01-10T07:57:35.277Z,970.44
2023-01-10T07:58:25.273Z,970.46
2023-01-10T07:59:15.261Z,970.45
2023-01-10T08:00:05.245Z,970.47
2023-01-10T08:00:55.247Z,970.50
2023-01-10T08:01:45.218Z,970.53
2023-01-10T08:02:35.342Z,970.49
2023-01-10T08:03:25.365Z,970.50
2023-01-10T08:04:15.186Z,970.46
2023-01-10T08:05:05.197Z,970.53
2023-01-10T08:05:55.175Z,970.57
2023-01-10T08:06:45.165Z,970.60
2023-01-10T08:07:35.154Z,970.53
2023-01-10T08:08:25.166Z,970.58
2023-01-10T08:09:15.167Z,970.61
2023-01-10T08:10:05.136Z,970.66
2023-01-10T08:10:55.147Z,970.60
2023-01-10T08:11:45.105Z,970.67
2023-01-10T08:12:35.095Z,970.67
2023-01-10T08:13:25.121Z,970.65
2023-01-10T08:14:15.114Z,970.69
2023-01-10T08:15:05.104Z,970.75
2023-01-10T08:15:55.085Z,970.70
2023-01-10T08:16:45.102Z,970.71
2023-01-10T08:17:35.041Z,970.71
2023-01-10T08:18:25.063Z,970.70
2023-01-10T08:19:15.027Z,970.72
2023-01-10T08:20:05.023Z,970.72
2023-01-10T08:20:55.011Z,970.77
2023-01-10T08:21:45.040Z,970.78
2023-01-10T08:22:34.989Z,970.77
2023-01-10T08:23:24.998Z,970.74
2023-01-10T08:24:14.985Z,970.74
2023-01-10T08:25:04.972Z,970.73
2023-01-10T08:25:54.977Z,970.77
2023-01-10T08:26:45.006Z,970.76
2023-01-10T08:27:34.937Z,970.75
2023-01-10T08:28:24.919Z,970.75
2023-01-10T08:29:14.935Z,970.82
2023-01-10T08:30:04.923Z,970.74
2023-01-10T08:30:54.955Z,970.73
2023-01-10T08:31:44.895Z,970.77
2023-01-10T08:32:34.877Z,970.75
2023-01-10T08:33:24.865Z,970.78
2023-01-10T08:34:14.885Z,970.78
2023-01-10T08:35:04.866Z,970.77
2023-01-10T08:35:54.841Z,970.83
2023-01-10T08:36:44.839Z,970.78
2023-01-10T08:37:34.820Z,970.80
2023-01-10T08:38:24.814Z,970.85
2023-01-10T08:39:14.922Z,970.84
2023-01-10T08:40:04.927Z,970.91
2023-01-10T08:40:54.781Z,970.91
2023-01-10T08:41:44.782Z,970.90
2023-01-10T08:42:34.769Z,970.99
2023-01-10T08:43:24.766Z,970.96
2023-01-10T08:44:14.749Z,970.97
2023-01-10T08:45:04.784Z,970.92
2023-01-10T08:45:54.732Z,970.95
2023-01-10T08:46:44.810Z,970.96
2023-01-10T08:47:34.718Z,970.91
2023-01-10T08:48:24.742Z,970.90
2023-01-10T08:49:14.718Z,970.97
2023-01-10T08:50:05.962Z,971.01
2023-01-10T08:50:54.682Z,971.02
2023-01-10T08:51:44.741Z,971.03
2023-01-10T08:52:34.658Z,971.07
2023-01-10T08:53:24.655Z,971.10
2023-01-10T08:54:14.632Z,971.17
2023-01-10T08:55:04.667Z,971.16
2023-01-10T08:55:54.618Z,971.10
2023-01-10T08:56:44.618Z,971.10
2023-01-10T08:57:34.595Z,971.11
2023-01-10T08:58:24.598Z,971.15
2023-01-10T08:59:14.605Z,971.13
2023-01-10T09:00:04.599Z,971.18
2023-01-10T09:00:54.573Z,971.15
2023-01-10T09:01:44.695Z,971.18
2023-01-10T09:02:34.581Z,971.23
2023-01-10T09:03:24.536Z,971.26
2023-01-10T09:04:14.549Z,971.26
2023-01-10T09:05:06.279Z,971.21
2023-01-10T09:05:54.509Z,971.23
2023-01-10T09:06:44.565Z,971.23
2023-01-10T09:07:34.520Z,971.20
2023-01-10T09:08:24.537Z,971.14
2023-01-10T09:09:14.463Z,971.18
2023-01-10T09:10:04.471Z,971.14
2023-01-10T09:10:54.473Z,971.17
2023-01-10T09:11:44.455Z,971.18
2023-01-10T09:12:34.431Z,971.14
2023-01-10T09:13:24.425Z,971.19
2023-01-10T09:14:14.462Z,971.16
2023-01-10T09:15:04.416Z,971.24
2023-01-10T09:15:54.436Z,971.23
2023-01-10T09:16:44.401Z,971.26
2023-01-10T09:17:34.396Z,971.26
2023-01-10T09:18:24.392Z,971.23
2023-01-10T09:19:14.367Z,971.29
2023-01-10T09:20:04.684Z,971.19
2023-01-10T09:20:54.366Z,971.27
2023-01-10T09:21:44.346Z,971.21
2023-01-10T09:22:34.321Z,971.26
2023-01-10T09:23:24.333Z,971.26
2023-01-10T09:24:14.335Z,971.28
2023-01-10T09:25:04.340Z,971.32
2023-01-10T09:25:54.347Z,971.30
2023-01-10T09:26:44.293Z,971.34
2023-01-10T09:27:34.265Z,971.40
2023-01-10T09:28:24.285Z,971.41
2023-01-10T09:29:14.241Z,971.40
2023-01-10T09:30:04.287Z,971.40
2023-01-10T09:30:54.237Z,971.41
2023-01-10T09:31:44.334Z,971.43
2023-01-10T09:32:34.250Z,971.45
2023-01-10T09:33:25.301Z,971.49
2023-01-10T09:34:14.220Z,971.47
2023-01-10T09:35:04.189Z,971.51
2023-01-10T09:35:54.249Z,971.51
2023-01-10T09:36:44.179Z,971.53
2023-01-10T09:37:34.159Z,971.58
2023-01-10T09:38:24.175Z,971.54
2023-01-10T09:39:14.161Z,971.62
2023-01-10T09:40:04.138Z,971.67
2023-01-10T09:40:54.123Z,971.66
2023-01-10T09:41:44.131Z,971.72
2023-01-10T09:42:34.107Z,971.73
2023-01-10T09:43:24.120Z,971.76
2023-01-10T09:44:14.101Z,971.78
2023-01-10T09:45:05.537Z,971.79
2023-01-10T09:45:54.117Z,971.80
2023-01-10T09:46:44.093Z,971.80
2023-01-10T09:47:34.049Z,971.79
2023-01-10T09:48:24.054Z,971.83
2023-01-10T09:49:14.088Z,971.79
2023-01-10T09:50:04.032Z,971.79
2023-01-10T09:50:54.013Z,971.80
2023-01-10T09:51:44.015Z,971.78
2023-01-10T09:52:33.999Z,971.79
2023-01-10T09:53:23.997Z,971.77
2023-01-10T09:54:14.002Z,971.78
2023-01-10T09:55:04.003Z,971.80
2023-01-10T09:55:53.971Z,971.76
2023-01-10T09:56:43.976Z,971.80
2023-01-10T09:57:33.936Z,971.84
2023-01-10T09:58:23.932Z,971.85
2023-01-10T09:59:13.955Z,971.83
2023-01-10T10:00:03.917Z,971.83
2023-01-10T10:00:53.962Z,971.85
2023-01-10T10:01:43.933Z,971.84
2023-01-10T10:02:33.903Z,971.86
2023-01-10T10:03:23.925Z,971.89
2023-01-10T10:04:13.908Z,971.91
2023-01-10T10:05:03.902Z,971.93
2023-01-10T10:06:00.898Z,971.86
2023-01-10T10:06:44.868Z,971.80
2023-01-10T10:07:33.844Z,971.78
2023-01-10T10:08:23.837Z,971.82
2023-01-10T10:09:13.823Z,971.72
2023-01-10T10:10:03.813Z,971.69
2023-01-10T10:10:53.826Z,971.72
2023-01-10T10:11:43.803Z,971.70
2023-01-10T10:12:33.772Z,971.71
2023-01-10T10:13:27.501Z,971.68
2023-01-10T10:14:13.836Z,971.70
2023-01-10T10:15:03.753Z,971.71
2023-01-10T10:15:53.832Z,971.68
2023-01-10T10:16:43.733Z,971.61
2023-01-10T10:17:33.721Z,971.53
2023-01-10T10:18:23.743Z,971.58
2023-01-10T10:19:13.720Z,971.54
2023-01-10T10:20:03.724Z,971.55
2023-01-10T10:20:53.682Z,971.57
2023-01-10T10:21:43.684Z,971.58
2023-01-10T10:22:33.680Z,971.58
2023-01-10T10:23:23.670Z,971.57